sensor_id;sensor_type;location;lat;lon;timestamp;pressure;altitude;pressure_sealevel;temperature;humidity
26178;BME280;13924;47.670;10.310;2022-12-18T00:12:45;94280;;;-5.8;100.0
26178;BME280;13924;47.670;10.310;2022-12-18T00:18:11;94340;;;-5.7;100.0
26178;BME280;13924;47.670;10.310;2022-12-18T00:23:35;94340;;;-5.7;100.0
26178;BME280;13924;47.670;10.310;2022-12-18T00:29:14;94380;;;-5.7;100.0
26178;BME280;13924;47.670;10.310;2022-12-18T00:34:37;94380;;;-5.7;100.0
26178;BME280;13924;47.670;10.310;2022-12-18T00:43:02;94420;;;-5.8;100.0
26178;BME280;13924;47.670;10.310;2022-12-18T00:48:09;94420;;;-5.8;100.0
26178;BME280;13924;47.670;10.310;2022-12-18T00:53:26;94420;;;-5.8;100.0
26178;BME280;13924;47.670;10.310;2022-12-18T00:58:43;94460;;;-6.1;100.0
26178;BME280;13924;47.670;10.310;2022-12-18T01:04:21;94480;;;-6.2;100.0
26178;BME280;13924;47.670;10.310;2022-12-18T01:09:49;94500;;;-6.2;100.0
26178;BME280;13924;47.670;10.310;2022-12-18T01:15:27;94500;;;-6.2;100.0
26178;BME280;13924;47.670;10.310;2022-12-18T01:22:34;94520;;;-6.4;100.0
26178;BME280;13924;47.670;10.310;2022-12-18T01:27:38;94520;;;-6.4;100.0
26178;BME280;13924;47.670;10.310;2022-12-18T01:32:50;94530;;;-6.9;100.0
26178;BME280;13924;47.670;10.310;2022-12-18T01:39:26;94550;;;-6.7;100.0
26178;BME280;13924;47.670;10.310;2022-12-18T01:45:08;94570;;;-6.7;100.0
26178;BME280;13924;47.670;10.310;2022-12-18T01:56:14;94560;;;-6.8;100.0
26178;BME280;13924;47.670;10.310;2022-12-18T02:01:23;94550;;;-7.0;100.0
26178;BME280;13924;47.670;10.310;2022-12-18T02:06:45;94550;;;-7.0;100.0
26178;BME280;13924;47.670;10.310;2022-12-18T02:12:37;94550;;;-7.0;100.0
26178;BME280;13924;47.670;10.310;2022-12-18T02:20:31;94540;;;-7.1;100.0
26178;BME280;13924;47.670;10.310;2022-12-18T02:26:07;94560;;;-6.7;100.0
26178;BME280;13924;47.670;10.310;2022-12-18T02:31:39;94540;;;-6.8;100.0
26178;BME280;13924;47.670;10.310;2022-12-18T02:39:30;94420;;;-7.3;100.0
26178;BME280;13924;47.670;10.310;2022-12-18T02:44:43;94420;;;-7.3;100.0
26178;BME280;13924;47.670;10.310;2022-12-18T02:50:02;94420;;;-7.3;100.0
26178;BME280;13924;47.670;10.310;2022-12-18T02:55:18;94420;;;-7.3;100.0
26178;BME280;13924;47.670;10.310;2022-12-18T03:00:30;94440;;;-7.3;100.0
26178;BME280;13924;47.670;10.310;2022-12-18T03:05:36;94410;;;-7.7;100.0
26178;BME280;13924;47.670;10.310;2022-12-18T03:16:06;94390;;;-8.1;100.0
26178;BME280;13924;47.670;10.310;2022-12-18T03:21:38;94390;;;-8.1;100.0
26178;BME280;13924;47.670;10.310;2022-12-18T03:26:51;94390;;;-8.1;100.0
26178;BME280;13924;47.670;10.310;2022-12-18T03:32:02;94430;;;-8.2;100.0
26178;BME280;13924;47.670;10.310;2022-12-18T03:38:31;94430;;;-8.2;100.0
26178;BME280;13924;47.670;10.310;2022-12-18T03:47:07;94450;;;-8.0;100.0
26178;BME280;13924;47.670;10.310;2022-12-18T03:52:06;94450;;;-8.0;100.0
26178;BME280;13924;47.670;10.310;2022-12-18T03:57:16;94430;;;-7.7;100.0
26178;BME280;13924;47.670;10.310;2022-12-18T04:08:33;94410;;;-7.7;100.0
26178;BME280;13924;47.670;10.310;2022-12-18T04:13:39;94400;;;-7.6;100.0
26178;BME280;13924;47.670;10.310;2022-12-18T04:18:57;94380;;;-7.8;100.0
26178;BME280;13924;47.670;10.310;2022-12-18T04:24:14;94350;;;-8.0;100.0
26178;BME280;13924;47.670;10.310;2022-12-18T04:29:24;94380;;;-7.9;100.0
26178;BME280;13924;47.670;10.310;2022-12-18T04:35:09;94380;;;-7.9;100.0
26178;BME280;13924;47.670;10.310;2022-12-18T04:40:21;94370;;;-8.1;100.0
26178;BME280;13924;47.670;10.310;2022-12-18T04:45:33;94370;;;-8.3;100.0
26178;BME280;13924;47.670;10.310;2022-12-18T04:50:46;94370;;;-8.3;100.0
26178;BME280;13924;47.670;10.310;2022-12-18T04:56:30;94370;;;-8.3;100.0
26178;BME280;13924;47.670;10.310;2022-12-18T05:01:37;94400;;;-8.1;100.0
26178;BME280;13924;47.670;10.310;2022-12-18T05:12:11;94370;;;-8.5;100.0
26178;BME280;13924;47.670;10.310;2022-12-18T05:17:23;94380;;;-8.4;100.0
26178;BME280;13924;47.670;10.310;2022-12-18T05:27:57;94370;;;-8.3;100.0
26178;BME280;13924;47.670;10.310;2022-12-18T05:34:35;94370;;;-8.3;100.0
26178;BME280;13924;47.670;10.310;2022-12-18T05:42:26;94370;;;-8.3;100.0
26178;BME280;13924;47.670;10.310;2022-12-18T05:52:59;94350;;;-8.6;100.0
26178;BME280;13924;47.670;10.310;2022-12-18T06:03:48;94350;;;-8.6;100.0
26178;BME280;13924;47.670;10.310;2022-12-18T06:09:08;94350;;;-8.6;100.0
26178;BME280;13924;47.670;10.310;2022-12-18T06:15:05;94350;;;-8.9;100.0
26178;BME280;13924;47.670;10.310;2022-12-18T06:20:35;94350;;;-8.9;100.0
26178;BME280;13924;47.670;10.310;2022-12-18T06:25:46;94330;;;-9.5;100.0
26178;BME280;13924;47.670;10.310;2022-12-18T06:31:05;94330;;;-9.5;100.0
26178;BME280;13924;47.670;10.310;2022-12-18T06:36:23;94330;;;-9.5;100.0
26178;BME280;13924;47.670;10.310;2022-12-18T06:41:38;94330;;;-9.5;100.0
26178;BME280;13924;47.670;10.310;2022-12-18T06:47:02;94330;;;-9.5;100.0
26178;BME280;13924;47.670;10.310;2022-12-18T06:53:46;94360;;;-9.9;100.0
26178;BME280;13924;47.670;10.310;2022-12-18T06:59:00;94390;;;-9.2;100.0
26178;BME280;13924;47.670;10.310;2022-12-18T07:05:43;94360;;;-8.7;100.0
26178;BME280;13924;47.670;10.310;2022-12-18T07:12:12;94270;;;-9.1;100.0
26178;BME280;13924;47.670;10.310;2022-12-18T07:17:16;94250;;;-9.8;100.0
26178;BME280;13924;47.670;10.310;2022-12-18T07:22:33;94270;;;-9.9;100.0
26178;BME280;13924;47.670;10.310;2022-12-18T07:27:48;94270;;;-9.9;100.0
26178;BME280;13924;47.670;10.310;2022-12-18T07:32:59;94300;;;-9.5;100.0
26178;BME280;13924;47.670;10.310;2022-12-18T07:39:35;94300;;;-9.5;100.0
26178;BME280;13924;47.670;10.310;2022-12-18T07:50:15;94300;;;-9.5;100.0
26178;BME280;13924;47.670;10.310;2022-12-18T07:55:29;94300;;;-9.5;100.0
26178;BME280;13924;47.670;10.310;2022-12-18T08:00:45;94290;;;-9.9;100.0
26178;BME280;13924;47.670;10.310;2022-12-18T08:07:32;94290;;;-9.9;100.0
26178;BME280;13924;47.670;10.310;2022-12-18T08:12:51;94290;;;-9.9;100.0
26178;BME280;13924;47.670;10.310;2022-12-18T08:17:59;94280;;;-8.8;100.0
26178;BME280;13924;47.670;10.310;2022-12-18T08:28:39;94280;;;-8.8;100.0
26178;BME280;13924;47.670;10.310;2022-12-18T08:34:13;94270;;;-9.0;100.0
26178;BME280;13924;47.670;10.310;2022-12-18T08:39:39;94270;;;-9.0;100.0
26178;BME280;13924;47.670;10.310;2022-12-18T08:44:49;94250;;;-9.1;100.0
26178;BME280;13924;47.670;10.310;2022-12-18T08:50:06;94250;;;-9.1;100.0
26178;BME280;13924;47.670;10.310;2022-12-18T08:55:26;94250;;;-9.1;100.0
26178;BME280;13924;47.670;10.310;2022-12-18T09:00:39;94250;;;-9.1;100.0
26178;BME280;13924;47.670;10.310;2022-12-18T09:05:52;94250;;;-9.1;100.0
26178;BME280;13924;47.670;10.310;2022-12-18T09:11:23;94270;;;-9.1;100.0
26178;BME280;13924;47.670;10.310;2022-12-18T09:23:20;94270;;;-9.1;100.0
26178;BME280;13924;47.670;10.310;2022-12-18T09:28:28;94260;;;-6.8;100.0
26178;BME280;13924;47.670;10.310;2022-12-18T09:33:41;94250;;;-5.0;100.0
26178;BME280;13924;47.670;10.310;2022-12-18T09:39:05;94240;;;-4.0;100.0
26178;BME280;13924;47.670;10.310;2022-12-18T09:44:23;94220;;;-2.7;100.0
26178;BME280;13924;47.670;10.310;2022-12-18T09:49:34;94210;;;-2.3;100.0
26178;BME280;13924;47.670;10.310;2022-12-18T10:00:12;94190;;;-2.3;100.0
26178;BME280;13924;47.670;10.310;2022-12-18T10:05:25;94190;;;-2.3;100.0
26178;BME280;13924;47.670;10.310;2022-12-18T10:10:38;94190;;;-1.2;100.0
26178;BME280;13924;47.670;10.310;2022-12-18T10:15:59;94190;;;-1.2;100.0
26178;BME280;13924;47.670;10.310;2022-12-18T10:21:05;94210;;;0.3;100.0
26178;BME280;13924;47.670;10.310;2022-12-18T10:37:06;94210;;;2.2;100.0
26178;BME280;13924;47.670;10.310;2022-12-18T10:42:11;94200;;;3.5;100.0
26178;BME280;13924;47.670;10.310;2022-12-18T10:47:26;94200;;;3.5;100.0
26178;BME280;13924;47.670;10.310;2022-12-18T10:52:40;94180;;;5.0;100.0
26178;BME280;13924;47.670;10.310;2022-12-18T10:57:52;94180;;;3.9;65.3
26178;BME280;13924;47.670;10.310;2022-12-18T11:02:59;94190;;;3.1;93.1
26178;BME280;13924;47.670;10.310;2022-12-18T11:08:20;94190;;;3.0;71.4
26178;BME280;13924;47.670;10.310;2022-12-18T11:13:29;94190;;;3.8;76.5
26178;BME280;13924;47.670;10.310;2022-12-18T11:18:39;94200;;;3.9;74.4
26178;BME280;13924;47.670;10.310;2022-12-18T11:23:50;94190;;;3.9;70.3
26178;BME280;13924;47.670;10.310;2022-12-18T11:29:16;94190;;;5.1;60.7
26178;BME280;13924;47.670;10.310;2022-12-18T11:34:30;94190;;;5.1;60.7
26178;BME280;13924;47.670;10.310;2022-12-18T11:45:18;94200;;;6.4;53.1
26178;BME280;13924;47.670;10.310;2022-12-18T11:50:19;94200;;;6.0;58.1
26178;BME280;13924;47.670;10.310;2022-12-18T11:55:33;94200;;;6.0;58.1
26178;BME280;13924;47.670;10.310;2022-12-18T12:00:42;94200;;;6.9;54.8
26178;BME280;13924;47.670;10.310;2022-12-18T12:06:05;94190;;;8.1;47.4
26178;BME280;13924;47.670;10.310;2022-12-18T12:16:34;94170;;;6.8;48.4
26178;BME280;13924;47.670;10.310;2022-12-18T12:21:40;94170;;;7.8;46.6
26178;BME280;13924;47.670;10.310;2022-12-18T12:27:00;94170;;;8.6;52.9
26178;BME280;13924;47.670;10.310;2022-12-18T12:32:15;94160;;;9.5;49.3
26178;BME280;13924;47.670;10.310;2022-12-18T12:37:21;94160;;;8.3;48.1
26178;BME280;13924;47.670;10.310;2022-12-18T12:42:29;94160;;;8.3;48.1
26178;BME280;13924;47.670;10.310;2022-12-18T12:47:42;94150;;;7.5;55.5
26178;BME280;13924;47.670;10.310;2022-12-18T12:52:56;94120;;;8.5;51.0
26178;BME280;13924;47.670;10.310;2022-12-18T12:58:16;94130;;;7.0;51.9
26178;BME280;13924;47.670;10.310;2022-12-18T13:03:29;94140;;;5.9;56.8
26178;BME280;13924;47.670;10.310;2022-12-18T13:08:29;94130;;;4.6;66.8
26178;BME280;13924;47.670;10.310;2022-12-18T13:13:56;94110;;;4.3;77.9
26178;BME280;13924;47.670;10.310;2022-12-18T13:18:51;94110;;;4.2;84.9
26178;BME280;13924;47.670;10.310;2022-12-18T13:24:15;94120;;;4.0;85.5
26178;BME280;13924;47.670;10.310;2022-12-18T13:29:41;94130;;;3.6;98.9
26178;BME280;13924;47.670;10.310;2022-12-18T13:34:26;94130;;;3.6;98.9
26178;BME280;13924;47.670;10.310;2022-12-18T13:39:39;94140;;;2.8;100.0
26178;BME280;13924;47.670;10.310;2022-12-18T14:00:54;94140;;;1.3;100.0
26178;BME280;13924;47.670;10.310;2022-12-18T14:06:17;94140;;;1.3;100.0
26178;BME280;13924;47.670;10.310;2022-12-18T14:11:32;94140;;;1.3;100.0
26178;BME280;13924;47.670;10.310;2022-12-18T14:16:47;94140;;;1.3;100.0
26178;BME280;13924;47.670;10.310;2022-12-18T14:27:24;94160;;;0.8;100.0
26178;BME280;13924;47.670;10.310;2022-12-18T14:37:53;94180;;;-1.6;100.0
26178;BME280;13924;47.670;10.310;2022-12-18T14:43:09;94180;;;-1.6;100.0
26178;BME280;13924;47.670;10.310;2022-12-18T14:53:54;94180;;;-1.6;100.0
26178;BME280;13924;47.670;10.310;2022-12-18T14:59:14;94180;;;-1.6;100.0
26178;BME280;13924;47.670;10.310;2022-12-18T15:04:26;94190;;;-2.8;100.0
26178;BME280;13924;47.670;10.310;2022-12-18T15:14:55;94220;;;-3.3;100.0
26178;BME280;13924;47.670;10.310;2022-12-18T15:20:10;94220;;;-3.3;100.0
26178;BME280;13924;47.670;10.310;2022-12-18T15:25:32;94220;;;-3.3;100.0
26178;BME280;13924;47.670;10.310;2022-12-18T15:30:38;94230;;;-3.6;100.0
26178;BME280;13924;47.670;10.310;2022-12-18T15:35:56;94240;;;-3.6;100.0
26178;BME280;13924;47.670;10.310;2022-12-18T15:41:01;94270;;;-4.0;100.0
26178;BME280;13924;47.670;10.310;2022-12-18T15:46:12;94290;;;-4.2;100.0
26178;BME280;13924;47.670;10.310;2022-12-18T15:51:24;94320;;;-4.4;100.0
26178;BME280;13924;47.670;10.310;2022-12-18T15:56:34;94320;;;-4.4;100.0
26178;BME280;13924;47.670;10.310;2022-12-18T16:07:16;94340;;;-4.9;100.0
26178;BME280;13924;47.670;10.310;2022-12-18T16:12:26;94340;;;-4.9;100.0
26178;BME280;13924;47.670;10.310;2022-12-18T16:17:39;94380;;;-4.8;100.0
26178;BME280;13924;47.670;10.310;2022-12-18T16:28:14;94400;;;-4.8;100.0
26178;BME280;13924;47.670;10.310;2022-12-18T16:33:29;94420;;;-5.0;100.0
26178;BME280;13924;47.670;10.310;2022-12-18T16:39:03;94460;;;-5.1;100.0
26178;BME280;13924;47.670;10.310;2022-12-18T16:49:31;94520;;;-5.2;100.0
26178;BME280;13924;47.670;10.310;2022-12-18T16:54:40;94580;;;-5.3;100.0
26178;BME280;13924;47.670;10.310;2022-12-18T16:59:50;94600;;;-5.2;100.0
26178;BME280;13924;47.670;10.310;2022-12-18T17:05:01;94630;;;-5.2;100.0
26178;BME280;13924;47.670;10.310;2022-12-18T17:21:05;94600;;;-5.3;100.0
26178;BME280;13924;47.670;10.310;2022-12-18T17:26:12;94590;;;-5.3;100.0
26178;BME280;13924;47.670;10.310;2022-12-18T17:36:47;94590;;;-5.3;100.0
26178;BME280;13924;47.670;10.310;2022-12-18T17:52:42;94580;;;-5.6;100.0
26178;BME280;13924;47.670;10.310;2022-12-18T17:57:52;94560;;;-5.3;100.0
26178;BME280;13924;47.670;10.310;2022-12-18T18:03:08;94560;;;-5.3;100.0
26178;BME280;13924;47.670;10.310;2022-12-18T18:08:19;94550;;;-5.2;100.0
26178;BME280;13924;47.670;10.310;2022-12-18T18:13:29;94520;;;-5.2;100.0
26178;BME280;13924;47.670;10.310;2022-12-18T18:18:41;94500;;;-5.2;100.0
26178;BME280;13924;47.670;10.310;2022-12-18T18:23:51;94480;;;-5.2;100.0
26178;BME280;13924;47.670;10.310;2022-12-18T18:29:04;94540;;;-4.8;100.0
26178;BME280;13924;47.670;10.310;2022-12-18T18:34:16;94580;;;-4.9;100.0
26178;BME280;13924;47.670;10.310;2022-12-18T18:39:27;94570;;;-5.0;100.0
26178;BME280;13924;47.670;10.310;2022-12-18T18:44:38;94530;;;-5.0;100.0
26178;BME280;13924;47.670;10.310;2022-12-18T19:00:55;94530;;;-5.0;100.0
26178;BME280;13924;47.670;10.310;2022-12-18T19:06:00;94520;;;-4.8;100.0
26178;BME280;13924;47.670;10.310;2022-12-18T19:11:12;94540;;;-4.7;100.0
26178;BME280;13924;47.670;10.310;2022-12-18T19:16:24;94530;;;-4.7;100.0
26178;BME280;13924;47.670;10.310;2022-12-18T19:21:39;94530;;;-4.7;100.0
26178;BME280;13924;47.670;10.310;2022-12-18T19:26:52;94510;;;-4.7;100.0
26178;BME280;13924;47.670;10.310;2022-12-18T19:32:03;94480;;;-4.8;100.0
26178;BME280;13924;47.670;10.310;2022-12-18T19:37:20;94480;;;-4.8;100.0
26178;BME280;13924;47.670;10.310;2022-12-18T19:43:12;94500;;;-4.8;100.0
26178;BME280;13924;47.670;10.310;2022-12-18T19:48:25;94540;;;-4.7;100.0
26178;BME280;13924;47.670;10.310;2022-12-18T19:53:38;94610;;;-4.3;100.0
26178;BME280;13924;47.670;10.310;2022-12-18T19:58:59;94610;;;-4.3;100.0
26178;BME280;13924;47.670;10.310;2022-12-18T20:04:11;94610;;;-4.3;100.0
26178;BME280;13924;47.670;10.310;2022-12-18T20:09:39;94620;;;-4.3;100.0
26178;BME280;13924;47.670;10.310;2022-12-18T20:21:16;94660;;;-4.0;100.0
26178;BME280;13924;47.670;10.310;2022-12-18T20:26:39;94660;;;-4.0;100.0
26178;BME280;13924;47.670;10.310;2022-12-18T20:45:14;94620;;;-4.2;100.0
26178;BME280;13924;47.670;10.310;2022-12-18T20:50:30;94620;;;-4.2;100.0
26178;BME280;13924;47.670;10.310;2022-12-18T20:57:01;94590;;;-4.4;100.0
26178;BME280;13924;47.670;10.310;2022-12-18T21:02:12;94630;;;-3.8;100.0
26178;BME280;13924;47.670;10.310;2022-12-18T21:08:48;94630;;;-3.8;100.0
26178;BME280;13924;47.670;10.310;2022-12-18T21:13:54;94600;;;-4.1;100.0
26178;BME280;13924;47.670;10.310;2022-12-18T21:19:16;94570;;;-4.3;100.0
26178;BME280;13924;47.670;10.310;2022-12-18T21:24:42;94530;;;-4.3;100.0
26178;BME280;13924;47.670;10.310;2022-12-18T21:35:29;94530;;;-4.3;100.0
26178;BME280;13924;47.670;10.310;2022-12-18T21:40:43;94590;;;-3.9;100.0
26178;BME280;13924;47.670;10.310;2022-12-18T21:46:06;94610;;;-3.8;100.0
26178;BME280;13924;47.670;10.310;2022-12-18T21:51:17;94610;;;-3.8;100.0
26178;BME280;13924;47.670;10.310;2022-12-18T21:56:44;94550;;;-3.9;100.0
26178;BME280;13924;47.670;10.310;2022-12-18T22:01:43;94550;;;-3.9;100.0
26178;BME280;13924;47.670;10.310;2022-12-18T22:06:55;94520;;;-3.8;100.0
26178;BME280;13924;47.670;10.310;2022-12-18T22:12:12;94520;;;-3.8;100.0
26178;BME280;13924;47.670;10.310;2022-12-18T22:17:25;94520;;;-3.8;100.0
26178;BME280;13924;47.670;10.310;2022-12-18T22:22:37;94540;;;-3.8;100.0
26178;BME280;13924;47.670;10.310;2022-12-18T22:27:51;94560;;;-3.8;100.0
26178;BME280;13924;47.670;10.310;2022-12-18T22:33:02;94570;;;-3.8;100.0
26178;BME280;13924;47.670;10.310;2022-12-18T22:38:13;94580;;;-3.7;100.0
26178;BME280;13924;47.670;10.310;2022-12-18T22:43:30;94580;;;-3.7;100.0
26178;BME280;13924;47.670;10.310;2022-12-18T22:48:46;94580;;;-3.7;100.0
26178;BME280;13924;47.670;10.310;2022-12-18T22:54:00;94580;;;-3.7;100.0
26178;BME280;13924;47.670;10.310;2022-12-18T22:59:14;94600;;;-3.6;100.0
26178;BME280;13924;47.670;10.310;2022-12-18T23:04:24;94600;;;-3.6;100.0
26178;BME280;13924;47.670;10.310;2022-12-18T23:09:36;94620;;;-3.7;100.0
26178;BME280;13924;47.670;10.310;2022-12-18T23:14:48;94630;;;-3.7;100.0
26178;BME280;13924;47.670;10.310;2022-12-18T23:20:03;94630;;;-3.7;100.0
26178;BME280;13924;47.670;10.310;2022-12-18T23:25:16;94630;;;-3.7;100.0
26178;BME280;13924;47.670;10.310;2022-12-18T23:30:33;94710;;;-3.1;100.0
26178;BME280;13924;47.670;10.310;2022-12-18T23:35:44;94710;;;-3.1;100.0
26178;BME280;13924;47.670;10.310;2022-12-18T23:42:31;94710;;;-3.1;100.0
26178;BME280;13924;47.670;10.310;2022-12-18T23:47:35;94690;;;-3.4;100.0
26178;BME280;13924;47.670;10.310;2022-12-18T23:58:24;94690;;;-3.4;100.0
